University Park, Illinois
Current Conditions -  °F | °C
As of 12:35 PM on Monday 20 Oct 2014 (Local Time) from KIGQ Reporting Station
Scattered Clouds Scattered Clouds  
Wind Chill: 61°   Ceiling: Unl
Heat Index: 61°   Visibility: 10mi
Dew Point: 48°   Wind: 3mph
Humidity: 62%   Direction: 270°W
Pressure: 29.85"   Gusts: NA
Location:  41.4594°N, 87.6908°W
Report Text: KIGQ 201735Z AUTO 27003KT 10SM SCT060 16/09 A2985 RMK AO2 T01600088
Loading
Personal Weather Stations






























Interactive Weather Map
Tropical Storm Tracking
New forecast layout! Learn more

10-Day Weather Forecast

Advertisements
Track Severe Weather on mobile